Time;durP1;ratioP1;P1;durP2;ratioP2;P2;SDS_P1;SDS_P2;PMS_P1;PMS_P2;Temp;Humidity;BMP_temperature;BMP_pressure;BME280_temperature;BME280_humidity;BME280_pressure;Samples;Min_cycle;Max_cycle;Signal;HPM_P1;HPM_P2
2023/01/12 00:01:15;;;;;;;30.70;19.60;;;;;;;4.30;90.83;100286.64;107657;1254;94914;-53
2023/01/12 00:03:58;;;;;;;32.90;19.50;;;;;;;4.29;91.04;100282.00;107632;1254;81215;-54
2023/01/12 00:06:34;;;;;;;30.00;19.50;;;;;;;4.26;91.15;100282.76;107739;1250;82691;-53
2023/01/12 00:09:12;;;;;;;32.40;19.30;;;;;;;4.26;91.30;100281.23;107687;1250;98595;-54
2023/01/12 00:11:51;;;;;;;31.00;19.30;;;;;;;4.27;91.27;100283.09;107782;1250;87423;-52
2023/01/12 00:14:29;;;;;;;28.80;19.00;;;;;;;4.29;91.36;100283.77;107727;1250;95315;-48
2023/01/12 00:17:04;;;;;;;30.50;18.50;;;;;;;4.31;91.36;100281.36;107780;1250;80952;-55
2023/01/12 00:19:43;;;;;;;29.20;18.20;;;;;;;4.33;91.44;100283.02;107771;1250;83707;-56
2023/01/12 00:22:25;;;;;;;28.70;18.70;;;;;;;4.30;91.59;100288.44;107712;1250;96915;-55
2023/01/12 00:25:10;;;;;;;29.90;19.90;;;;;;;4.33;91.84;100292.27;107705;1250;88386;-55
2023/01/12 00:27:50;;;;;;;;;;;;;;;4.33;91.77;100292.45;107699;1250;95386;-56
2023/01/12 00:30:34;;;;;;;28.10;18.10;;;;;;;4.36;91.79;100297.52;107675;1251;82376;-52
2023/01/12 00:33:19;;;;;;;29.10;18.40;;;;;;;4.39;91.85;100295.00;107654;1250;79984;-54
2023/01/12 00:36:02;;;;;;;27.60;18.20;;;;;;;4.36;92.02;100294.08;107659;1250;97349;-54
2023/01/12 00:38:48;;;;;;;26.20;18.20;;;;;;;4.42;92.10;100294.53;107655;1250;87968;-53
2023/01/12 00:47:22;;;;;;;27.60;17.00;;;;;;;4.51;92.36;100297.55;107710;1250;82156;-58
2023/01/12 00:50:05;;;;;;;26.10;17.10;;;;;;;4.54;92.50;100301.48;107734;1250;98803;-55
2023/01/12 00:52:44;;;;;;;29.20;19.20;;;;;;;4.53;92.42;100303.05;107689;1250;88116;-53
2023/01/12 00:55:26;;;;;;;28.90;17.50;;;;;;;4.53;92.58;100303.94;107713;1250;93981;-52
2023/01/12 00:58:06;;;;;;;28.00;17.00;;;;;;;4.54;92.66;100302.24;107712;1250;80509;-54
2023/01/12 01:00:48;;;;;;;26.80;17.30;;;;;;;4.57;92.77;100298.21;107753;1251;80944;-53
2023/01/12 01:03:29;;;;;;;;;;;;;;;4.61;92.81;100304.71;107645;1250;97547;-54
2023/01/12 01:06:17;;;;;;;29.00;18.40;;;;;;;4.66;92.86;100294.08;107809;1250;89144;-58
2023/01/12 01:08:59;;;;;;;25.20;16.70;;;;;;;4.64;92.84;100295.20;107893;1251;94852;-58
2023/01/12 01:11:46;;;;;;;27.80;18.10;;;;;;;4.64;92.85;100296.58;107721;1250;81300;-53
2023/01/12 01:14:27;;;;;;;26.10;17.20;;;;;;;4.66;92.96;100294.61;107690;1254;83189;-55
2023/01/12 01:17:07;;;;;;;27.60;17.70;;;;;;;4.65;92.84;100295.59;107671;1250;99414;-53
2023/01/12 01:19:49;;;;;;;26.70;17.70;;;;;;;4.66;93.18;100298.30;107645;1250;89028;-57
2023/01/12 01:22:30;;;;;;;27.30;16.80;;;;;;;4.66;93.25;100295.49;107681;1250;95478;-56
2023/01/12 01:25:10;;;;;;;25.00;17.00;;;;;;;4.64;93.16;100296.41;107622;1250;81525;-52
2023/01/12 01:27:45;;;;;;;28.10;18.30;;;;;;;4.66;93.35;100301.15;107714;1250;81922;-54
2023/01/12 01:30:25;;;;;;;26.60;16.60;;;;;;;4.69;93.34;100297.33;107709;1250;98063;-54
2023/01/12 01:33:03;;;;;;;29.00;17.50;;;;;;;4.72;93.29;100289.33;107659;1252;89099;-47
2023/01/12 01:35:43;;;;;;;28.00;17.60;;;;;;;4.77;93.37;100286.48;107750;1250;95370;-54
2023/01/12 01:38:27;;;;;;;27.50;17.50;;;;;;;4.78;93.37;100280.84;107698;1250;81712;-54
2023/01/12 01:41:18;;;;;;;27.00;17.00;;;;;;;4.79;93.39;100280.61;107666;1250;81347;-49
2023/01/12 01:44:05;;;;;;;25.70;17.10;;;;;;;4.84;93.44;100280.48;107673;1250;99372;-55
2023/01/12 01:46:51;;;;;;;25.20;16.40;;;;;;;4.82;93.56;100285.86;107756;1250;88157;-53
2023/01/12 01:49:43;;;;;;;25.80;17.10;;;;;;;4.82;93.66;100289.44;107688;1250;93244;-53
2023/01/12 01:52:32;;;;;;;26.10;16.50;;;;;;;4.87;93.85;100286.19;107732;1250;80607;-55
2023/01/12 01:55:14;;;;;;;26.10;16.20;;;;;;;4.91;93.52;100287.96;107715;1254;82470;-56
2023/01/12 01:57:52;;;;;;;24.20;15.70;;;;;;;4.89;93.75;100293.64;107628;1250;99252;-56
2023/01/12 02:00:32;;;;;;;24.80;16.90;;;;;;;4.91;93.71;100289.00;107726;1250;88483;-45
2023/01/12 02:03:13;;;;;;;25.50;16.40;;;;;;;4.93;93.82;100291.46;107675;1250;94235;-50
2023/01/12 02:05:57;;;;;;;26.20;16.30;;;;;;;4.95;93.76;100287.87;107633;1250;80082;-53
2023/01/12 02:08:41;;;;;;;25.20;16.50;;;;;;;4.94;93.94;100290.98;107638;1250;83104;-53
2023/01/12 02:17:31;;;;;;;25.00;15.90;;;;;;;5.09;93.83;100291.04;107683;1250;96217;-50
2023/01/12 02:20:50;;;;;;;27.50;17.40;;;;;;;5.07;94.12;100290.40;107671;1250;80860;-55
2023/01/12 02:24:15;;;;;;;23.70;16.10;;;;;;;5.00;94.14;100291.29;107710;1250;83445;-55
2023/01/12 02:27:45;;;;;;;23.10;16.00;;;;;;;5.03;94.14;100296.35;107672;1250;98532;-54
2023/01/12 02:31:20;;;;;;;24.20;15.90;;;;;;;5.08;94.18;100298.06;107716;1250;88426;-56
2023/01/12 02:34:12;;;;;;;25.50;15.20;;;;;;;5.15;94.22;100301.64;107812;1250;95995;-56
2023/01/12 02:37:03;;;;;;;20.60;14.70;;;;;;;5.15;94.28;100299.35;107708;1254;82752;-54
2023/01/12 02:39:45;;;;;;;26.80;15.70;;;;;;;5.15;94.38;100302.60;107678;1250;81304;-54
2023/01/12 02:42:43;;;;;;;22.50;15.30;;;;;;;5.15;94.25;100305.41;107688;1250;98571;-54
2023/01/12 02:45:41;;;;;;;21.90;14.70;;;;;;;5.17;94.39;100306.84;107615;1250;88688;-51
2023/01/12 02:48:33;;;;;;;22.50;15.00;;;;;;;5.19;94.38;100308.42;107627;1250;95289;-54
2023/01/12 02:51:15;;;;;;;25.20;15.90;;;;;;;5.27;94.50;100303.63;107660;1250;80874;-53
2023/01/12 02:54:00;;;;;;;22.30;14.40;;;;;;;5.32;94.33;100307.00;107660;1250;82198;-50
2023/01/12 02:56:50;;;;;;;20.90;14.80;;;;;;;5.32;94.47;100314.77;107662;1250;96849;-53
2023/01/12 02:59:33;;;;;;;21.70;14.90;;;;;;;5.35;94.72;100316.20;107631;1254;87449;-52
2023/01/12 03:02:15;;;;;;;22.30;14.40;;;;;;;5.36;94.59;100320.04;107650;1250;95399;-56
2023/01/12 03:04:51;;;;;;;19.60;14.10;;;;;;;5.38;94.61;100321.06;107685;1254;80029;-51
2023/01/12 03:07:53;;;;;;;18.60;13.60;;;;;;;5.41;94.56;100317.80;107729;1250;82496;-46
2023/01/12 03:10:47;;;;;;;21.80;14.10;;;;;;;5.39;94.75;100316.31;107712;1250;96689;-53
2023/01/12 03:13:27;;;;;;;22.80;15.20;;;;;;;5.46;94.78;100321.17;107727;1250;88528;-54
2023/01/12 03:16:09;;;;;;;18.90;13.00;;;;;;;5.50;94.72;100325.96;107726;1255;96750;-50
2023/01/12 03:18:50;;;;;;;19.70;14.00;;;;;;;5.54;94.65;100337.30;107777;1251;80360;-45
2023/01/12 03:21:36;;;;;;;19.20;14.00;;;;;;;5.54;94.61;100337.88;107746;1251;80897;-56
2023/01/12 03:24:24;;;;;;;18.60;13.10;;;;;;;5.57;94.63;100335.40;107774;1250;99462;-55
2023/01/12 03:27:06;;;;;;;20.90;13.90;;;;;;;5.57;94.93;100338.26;107683;1250;86571;-51
2023/01/12 03:30:01;;;;;;;19.60;13.70;;;;;;;5.59;94.85;100335.29;107678;1250;95334;-54
2023/01/12 03:32:41;;;;;;;20.10;13.60;;;;;;;5.59;94.75;100337.30;107682;1250;81194;-53
2023/01/12 03:35:20;;;;;;;21.30;14.00;;;;;;;5.59;94.99;100340.34;107690;1250;82779;-56
2023/01/12 03:38:08;;;;;;;16.90;13.00;;;;;;;5.64;94.76;100340.34;107658;1250;97643;-56
2023/01/12 03:40:50;;;;;;;20.00;13.00;;;;;;;5.64;94.94;100340.17;107631;1250;89110;-48
2023/01/12 03:43:37;;;;;;;20.00;13.80;;;;;;;5.68;94.97;100340.09;107634;1250;93675;-49
2023/01/12 03:46:24;;;;;;;18.20;13.20;;;;;;;5.68;95.04;100337.23;107647;1250;81634;-54
2023/01/12 03:49:08;;;;;;;20.70;13.70;;;;;;;5.69;95.04;100339.59;107623;1250;81817;-53
2023/01/12 03:51:48;;;;;;;20.00;14.20;;;;;;;5.73;95.25;100343.52;107354;1250;437496;-54
2023/01/12 03:54:27;;;;;;;23.60;15.00;;;;;;;5.77;95.14;100342.51;107663;1250;89134;-47
2023/01/12 03:57:09;;;;;;;20.60;14.10;;;;;;;5.81;95.21;100341.23;107699;1250;93702;-54
2023/01/12 03:59:53;;;;;;;19.50;14.40;;;;;;;5.83;95.14;100338.52;107710;1250;83105;-52
2023/01/12 04:02:29;;;;;;;21.40;15.00;;;;;;;5.87;95.13;100331.60;107706;1250;82532;-52
2023/01/12 04:05:07;;;;;;;23.10;15.00;;;;;;;5.88;95.19;100329.20;107786;1251;97985;-53
2023/01/12 04:07:48;;;;;;;22.30;15.80;;;;;;;5.88;95.17;100329.77;107712;1250;87108;-54
2023/01/12 04:10:26;;;;;;;;;;;;;;;5.94;95.20;100328.25;107719;1250;95293;-55
2023/01/12 04:13:10;;;;;;;23.00;15.10;;;;;;;5.96;95.26;100331.31;107715;1250;82628;-55
2023/01/12 04:15:48;;;;;;;20.30;14.20;;;;;;;5.98;95.25;100338.52;107686;1250;81623;-55
2023/01/12 04:18:33;;;;;;;22.50;15.80;;;;;;;6.01;95.42;100339.64;107701;1250;99438;-54
2023/01/12 04:24:09;;;;;;;19.30;14.70;;;;;;;6.10;95.27;100350.58;107604;1250;95108;-53
2023/01/12 04:26:45;;;;;;;21.80;14.80;;;;;;;6.09;95.39;100352.11;107637;1254;81990;-52
2023/01/12 04:29:24;;;;;;;20.50;15.50;;;;;;;6.10;95.19;100356.02;107651;1250;81566;-50
2023/01/12 04:32:07;;;;;;;22.50;15.50;;;;;;;6.09;95.32;100357.89;107638;1250;97875;-54
2023/01/12 04:34:45;;;;;;;22.20;14.90;;;;;;;6.13;95.51;100358.27;107671;1254;88482;-52
2023/01/12 04:37:25;;;;;;;21.70;15.40;;;;;;;6.15;95.45;100364.14;107639;1250;94458;-53
2023/01/12 04:40:01;;;;;;;22.10;15.60;;;;;;;6.16;95.53;100362.39;107619;1254;82461;-53
2023/01/12 04:43:06;;;;;;;22.10;15.60;;;;;;;6.19;95.44;100363.98;107703;1250;82569;-50
2023/01/12 04:45:46;;;;;;;22.50;16.10;;;;;;;6.20;95.52;100370.89;107614;1250;98975;-55
2023/01/12 04:48:24;;;;;;;23.70;16.00;;;;;;;6.22;95.58;100370.30;107688;1255;89420;-57
2023/01/12 04:51:05;;;;;;;22.80;15.80;;;;;;;6.25;95.54;100368.52;107687;1254;91969;-53
2023/01/12 04:53:50;;;;;;;22.90;15.20;;;;;;;6.29;95.39;100364.39;107690;1250;81366;-53
2023/01/12 04:56:27;;;;;;;21.30;15.00;;;;;;;6.28;95.58;100362.70;107673;1250;81405;-52
2023/01/12 04:59:09;;;;;;;22.90;14.50;;;;;;;6.30;95.48;100364.30;107677;1250;97544;-51
2023/01/12 05:01:56;;;;;;;21.20;15.50;;;;;;;6.28;95.55;100356.60;107640;1250;87706;-52
2023/01/12 05:04:42;;;;;;;21.80;15.90;;;;;;;6.33;95.34;100357.46;107638;1254;95276;-53
2023/01/12 05:07:22;;;;;;;19.60;15.50;;;;;;;6.36;95.51;100360.25;107628;1250;82500;-48
2023/01/12 05:13:00;;;;;;;20.60;15.70;;;;;;;6.34;95.39;100365.41;107606;1250;98769;-54
2023/01/12 05:15:46;;;;;;;21.10;15.80;;;;;;;6.30;95.71;100368.77;107627;1250;89546;-52
2023/01/12 05:18:28;;;;;;;19.00;14.80;;;;;;;6.31;95.47;100372.36;107602;1250;94057;-52
2023/01/12 05:21:08;;;;;;;19.80;15.30;;;;;;;6.32;95.58;100371.23;107627;1250;81751;-56
2023/01/12 05:23:45;;;;;;;19.60;14.80;;;;;;;6.34;95.61;100370.27;107720;1250;80747;-58
2023/01/12 05:26:29;;;;;;;19.80;14.80;;;;;;;6.32;95.76;100371.54;107680;1250;99029;-52
2023/01/12 05:29:14;;;;;;;21.90;14.70;;;;;;;6.38;95.67;100368.27;107700;1250;89343;-51
2023/01/12 05:31:51;;;;;;;22.40;15.10;;;;;;;6.38;95.71;100364.81;107680;1250;94616;-52
2023/01/12 05:34:31;;;;;;;20.10;14.90;;;;;;;6.42;95.68;100368.48;107634;1250;82794;-53
2023/01/12 05:37:09;;;;;;;22.10;15.50;;;;;;;6.46;95.62;100372.59;107732;1250;82615;-48
2023/01/12 05:39:48;;;;;;;20.90;16.00;;;;;;;6.49;95.61;100375.55;107707;1250;98949;-49
2023/01/12 05:45:41;;;;;;;19.90;14.70;;;;;;;6.50;95.52;100381.05;107326;1256;95004;-55
2023/01/12 05:48:24;;;;;;;20.10;15.80;;;;;;;6.52;95.57;100383.64;107345;1256;79540;-55
2023/01/12 05:51:07;;;;;;;19.00;14.30;;;;;;;6.52;95.56;100385.80;107577;1250;82257;-52
2023/01/12 05:53:49;;;;;;;18.80;14.10;;;;;;;6.54;95.44;100385.23;107738;1250;98363;-58
2023/01/12 05:56:36;;;;;;;20.50;14.90;;;;;;;6.54;95.60;100385.09;107683;1250;88095;-58
2023/01/12 05:59:16;;;;;;;21.90;15.00;;;;;;;6.58;95.61;100384.20;107671;1250;93677;-57
2023/01/12 06:01:52;;;;;;;20.90;14.60;;;;;;;6.58;95.75;100387.41;107778;1250;81083;-56
2023/01/12 06:04:32;;;;;;;20.90;15.30;;;;;;;6.60;95.72;100391.60;107667;1250;82670;-58
2023/01/12 06:07:19;;;;;;;20.20;15.40;;;;;;;6.61;95.61;100389.03;107639;1250;99099;-57
2023/01/12 06:10:02;;;;;;;18.40;14.90;;;;;;;6.61;95.73;100390.10;107679;1250;89210;-58
2023/01/12 06:15:47;;;;;;;20.30;16.00;;;;;;;6.67;95.67;100391.36;107669;1250;82604;-52
2023/01/12 06:18:27;;;;;;;23.70;16.40;;;;;;;6.68;95.70;100389.75;107715;1250;81575;-57
2023/01/12 06:21:06;;;;;;;22.00;15.50;;;;;;;6.68;95.82;100394.15;107695;1250;97894;-59
2023/01/12 06:23:47;;;;;;;22.90;16.50;;;;;;;6.69;95.82;100391.23;107737;1250;87821;-60
2023/01/12 06:26:26;;;;;;;20.40;15.30;;;;;;;6.72;95.82;100392.48;107776;1251;94498;-60
2023/01/12 06:29:05;;;;;;;21.60;15.70;;;;;;;6.75;95.72;100395.37;107757;1250;81283;-63
2023/01/12 06:31:46;;;;;;;24.50;16.30;;;;;;;6.73;95.79;100392.91;107751;1250;80878;-58
2023/01/12 06:34:38;;;;;;;22.60;16.50;;;;;;;6.75;95.81;100398.92;107733;1250;96796;-58
2023/01/12 06:37:23;;;;;;;22.90;16.00;;;;;;;6.75;95.92;100399.30;107657;1250;89694;-59
2023/01/12 06:40:13;;;;;;;21.70;16.20;;;;;;;6.78;95.82;100404.91;107678;1250;93007;-53
2023/01/12 06:42:49;;;;;;;23.50;16.40;;;;;;;6.77;95.96;100408.36;108594;1251;80523;-61
2023/01/12 06:45:28;;;;;;;23.60;17.00;;;;;;;6.77;95.95;100406.41;109357;1252;81444;-60
2023/01/12 06:48:03;;;;;;;22.30;15.90;;;;;;;6.78;96.10;100401.34;109348;1252;98255;-60
2023/01/12 06:50:40;;;;;;;25.00;16.90;;;;;;;6.79;96.07;100403.84;109422;1252;86752;-60
2023/01/12 06:53:16;;;;;;;24.10;16.30;;;;;;;6.81;96.03;100402.42;109318;1253;94674;-58
2023/01/12 06:55:59;;;;;;;22.60;16.40;;;;;;;6.81;96.30;100404.25;109400;1252;80597;-59
2023/01/12 06:58:37;;;;;;;24.20;16.70;;;;;;;6.84;96.00;100403.88;109398;1252;80378;-60
2023/01/12 07:01:14;;;;;;;23.20;16.70;;;;;;;6.89;95.88;100404.77;109376;1252;97272;-55
2023/01/12 07:03:57;;;;;;;24.60;16.60;;;;;;;6.92;95.77;100412.25;109425;1252;88242;-54
2023/01/12 07:06:34;;;;;;;24.80;16.80;;;;;;;6.91;95.93;100421.55;109423;1252;94279;-57
2023/01/12 07:09:17;;;;;;;22.00;15.80;;;;;;;6.93;95.98;100423.63;109370;1252;82689;-58
2023/01/12 07:11:52;;;;;;;28.80;18.20;;;;;;;6.94;95.85;100429.20;108913;1257;82794;-55
2023/01/12 07:14:30;;;;;;;23.70;17.10;;;;;;;6.99;95.70;100432.59;108945;1257;96952;-54
2023/01/12 07:17:06;;;;;;;25.40;17.20;;;;;;;7.00;95.81;100437.20;108910;1259;89822;-53
2023/01/12 07:19:42;;;;;;;25.50;18.20;;;;;;;7.01;95.75;100433.48;108874;1261;95952;-54
2023/01/12 07:22:22;;;;;;;25.80;17.60;;;;;;;7.01;95.71;100439.95;108902;1257;82625;-57
2023/01/12 07:25:01;;;;;;;22.20;15.90;;;;;;;7.02;95.78;100445.77;108922;1259;81337;-57
2023/01/12 07:28:03;;;;;;;23.50;17.40;;;;;;;7.05;95.83;100451.00;108955;1257;98888;-58
2023/01/12 07:30:38;;;;;;;23.60;16.90;;;;;;;7.12;95.58;100447.73;108942;1257;86518;-59
2023/01/12 07:33:16;;;;;;;22.60;15.50;;;;;;;7.14;95.60;100446.35;108931;1257;95239;-59
2023/01/12 07:36:02;;;;;;;25.00;16.80;;;;;;;7.08;95.78;100450.14;108955;1258;80634;-57
2023/01/12 07:38:43;;;;;;;22.80;16.90;;;;;;;7.09;95.68;100453.69;108917;1257;81514;-57
2023/01/12 07:44:13;;;;;;;24.30;17.90;;;;;;;7.20;95.63;100458.52;108946;1257;87014;-58
2023/01/12 07:46:56;;;;;;;22.60;15.50;;;;;;;7.24;95.51;100457.66;108921;1257;94534;-57
2023/01/12 07:49:50;;;;;;;25.80;17.40;;;;;;;7.28;95.38;100457.58;108904;1257;81151;-56
2023/01/12 07:52:26;;;;;;;25.00;17.30;;;;;;;7.31;95.38;100457.46;108935;1257;81690;-53
2023/01/12 07:55:11;;;;;;;25.10;16.70;;;;;;;7.36;95.28;100457.58;108880;1257;97434;-53
2023/01/12 07:57:53;;;;;;;22.90;16.30;;;;;;;7.38;95.27;100458.50;108946;1257;88623;-54
2023/01/12 08:00:30;;;;;;;19.30;15.00;;;;;;;7.42;95.24;100461.77;108920;1258;94130;-53
2023/01/12 08:03:13;;;;;;;24.40;16.80;;;;;;;7.37;95.27;100467.73;108893;1258;81700;-53
2023/01/12 08:05:49;;;;;;;23.20;15.90;;;;;;;7.37;95.28;100468.40;108937;1259;82505;-56
2023/01/12 08:08:26;;;;;;;26.20;16.90;;;;;;;7.38;95.23;100469.69;108914;1261;98781;-56
2023/01/12 08:11:08;;;;;;;24.50;16.00;;;;;;;7.42;95.03;100475.10;109002;1256;88115;-54
2023/01/12 08:13:43;;;;;;;21.60;16.20;;;;;;;7.42;95.02;100476.51;109050;1256;96327;-53
2023/01/12 08:16:23;;;;;;;20.20;16.00;;;;;;;7.46;95.04;100476.38;109029;1256;79849;-53
2023/01/12 08:19:03;;;;;;;23.10;15.90;;;;;;;7.44;94.96;100476.75;109054;1256;82735;-54
2023/01/12 08:21:45;;;;;;;23.40;16.30;;;;;;;7.44;94.96;100477.18;109062;1256;99275;-55
2023/01/12 08:24:26;;;;;;;24.00;17.10;;;;;;;7.48;94.92;100477.38;109059;1256;88210;-55
2023/01/12 08:27:04;;;;;;;27.60;18.20;;;;;;;7.48;94.81;100476.92;109036;1256;95199;-55
2023/01/12 08:29:47;;;;;;;20.10;15.00;;;;;;;7.49;94.80;100473.92;109026;1256;80278;-53
2023/01/12 08:32:23;;;;;;;23.10;16.10;;;;;;;7.52;94.96;100481.65;109091;1256;82845;-53
2023/01/12 08:35:00;;;;;;;20.10;15.10;;;;;;;7.56;94.87;100478.30;109045;1256;96931;-53
2023/01/12 08:37:36;;;;;;;21.10;15.90;;;;;;;7.58;94.83;100472.65;109030;1256;88279;-53
2023/01/12 08:40:13;;;;;;;23.40;16.40;;;;;;;7.61;94.76;100470.44;109030;1256;94669;-55
2023/01/12 08:42:48;;;;;;;22.00;15.20;;;;;;;7.73;94.74;100471.39;108991;1256;81987;-55
2023/01/12 08:45:25;;;;;;;24.20;15.90;;;;;;;7.95;94.73;100472.38;109080;1256;81818;-56
2023/01/12 08:47:59;;;;;;;21.50;15.10;;;;;;;8.46;94.74;100471.06;109032;1256;100459;-56
2023/01/12 08:50:41;;;;;;;21.00;15.20;;;;;;;9.14;94.27;100476.37;109077;1256;88748;-55
2023/01/12 08:53:18;;;;;;;21.00;14.90;;;;;;;9.58;93.53;100480.58;109013;1256;95856;-55
2023/01/12 08:55:56;;;;;;;22.10;14.20;;;;;;;9.79;93.13;100480.77;109013;1256;80805;-53
2023/01/12 08:58:32;;;;;;;18.90;14.20;;;;;;;9.95;92.52;100482.95;109042;1256;81756;-54
2023/01/12 09:01:13;;;;;;;19.70;14.50;;;;;;;9.69;92.34;100490.36;109084;1256;97450;-53
2023/01/12 09:03:49;;;;;;;17.90;14.40;;;;;;;9.76;91.97;100489.73;109073;1256;85844;-54
2023/01/12 09:06:31;;;;;;;19.10;14.60;;;;;;;9.62;91.89;100488.66;109022;1256;96641;-53
2023/01/12 09:09:10;;;;;;;19.40;15.00;;;;;;;9.82;91.87;100488.59;109046;1256;81147;-56
2023/01/12 09:11:47;;;;;;;18.50;14.00;;;;;;;10.35;91.33;100481.89;109031;1257;83006;-56
2023/01/12 09:14:24;;;;;;;17.80;12.80;;;;;;;10.55;90.78;100475.08;109078;1256;97658;-53
2023/01/12 09:17:02;;;;;;;17.80;13.40;;;;;;;10.72;90.04;100470.13;109040;1256;88602;-54
2023/01/12 09:19:42;;;;;;;19.40;12.80;;;;;;;10.64;89.30;100473.48;109071;1256;93891;-55
2023/01/12 09:22:22;;;;;;;14.40;11.90;;;;;;;10.34;88.72;100475.02;109055;1256;79720;-55
2023/01/12 09:25:01;;;;;;;17.60;12.60;;;;;;;9.99;88.42;100475.48;109092;1256;81694;-54
2023/01/12 09:27:37;;;;;;;17.10;12.30;;;;;;;9.98;88.67;100471.98;109054;1256;99006;-56
2023/01/12 09:30:17;;;;;;;17.20;12.00;;;;;;;10.18;88.73;100462.90;109066;1256;88359;-58
2023/01/12 09:33:01;;;;;;;18.30;12.60;;;;;;;10.33;88.68;100463.80;109037;1256;95883;-57
2023/01/12 09:35:38;;;;;;;17.30;12.30;;;;;;;10.63;88.72;100455.73;109059;1256;79736;-55
2023/01/12 09:38:16;;;;;;;14.80;11.50;;;;;;;11.17;88.58;100458.19;109060;1256;82398;-54
2023/01/12 09:40:58;;;;;;;13.60;10.40;;;;;;;11.50;88.12;100449.80;109066;1256;96965;-57
2023/01/12 09:49:42;;;;;;;14.40;10.60;;;;;;;12.32;86.55;100437.33;109028;1256;79145;-54
2023/01/12 09:52:25;;;;;;;12.00;9.30;;;;;;;12.85;85.79;100439.41;109049;1256;81817;-54
2023/01/12 09:55:01;;;;;;;12.80;8.60;;;;;;;13.32;85.04;100439.31;109018;1257;96931;-54
2023/01/12 09:58:26;;;;;;;13.70;8.40;;;;;;;13.70;84.18;100431.52;109010;1259;89388;-54
2023/01/12 10:01:18;;;;;;;12.10;8.30;;;;;;;14.09;83.48;100426.23;109028;1257;94983;-59
2023/01/12 10:04:15;;;;;;;10.80;7.70;;;;;;;14.48;82.09;100416.20;109073;1257;78851;-58
2023/01/12 10:07:19;;;;;;;10.40;7.70;;;;;;;14.74;80.41;100409.84;109083;1257;81960;-59
2023/01/12 10:10:02;;;;;;;10.00;7.40;;;;;;;14.96;80.21;100412.77;109115;1256;97897;-59
2023/01/12 10:12:45;;;;;;;10.40;6.80;;;;;;;15.05;79.60;100412.31;109136;1256;88446;-59
2023/01/12 10:15:45;;;;;;;9.90;6.90;;;;;;;15.17;79.22;100407.54;109065;1257;94522;-55
2023/01/12 10:18:35;;;;;;;9.40;7.00;;;;;;;15.06;78.22;100411.81;109003;1256;79173;-55
2023/01/12 10:21:15;;;;;;;9.70;7.10;;;;;;;15.28;78.39;100412.98;109074;1256;81954;-55
2023/01/12 10:23:53;;;;;;;10.90;6.80;;;;;;;15.54;77.78;100413.73;109091;1257;98976;-55
2023/01/12 10:26:43;;;;;;;9.60;6.10;;;;;;;15.57;77.45;100413.29;109075;1257;87332;-54
2023/01/12 10:29:36;;;;;;;9.30;5.40;;;;;;;15.32;76.35;100408.63;108970;1258;94035;-54
2023/01/12 10:32:31;;;;;;;8.70;5.60;;;;;;;14.98;75.96;100402.82;109029;1257;79162;-54
2023/01/12 10:35:18;;;;;;;9.00;5.20;;;;;;;14.37;75.06;100399.51;109012;1257;81517;-58
2023/01/12 10:37:55;;;;;;;11.50;6.80;;;;;;;13.74;74.78;100401.02;109037;1260;97307;-58
2023/01/12 10:40:33;;;;;;;11.10;6.30;;;;;;;13.34;75.20;100397.50;109051;1257;86551;-56
2023/01/12 10:43:30;;;;;;;8.80;5.00;;;;;;;12.98;75.32;100397.88;109040;1260;95772;-56
2023/01/12 10:46:26;;;;;;;9.10;5.10;;;;;;;12.56;75.25;100392.92;109051;1256;80812;-58
2023/01/12 10:49:22;;;;;;;9.70;5.10;;;;;;;12.19;75.34;100385.63;109088;1258;82862;-54
2023/01/12 10:52:13;;;;;;;10.60;5.00;;;;;;;11.81;75.65;100387.29;108978;1256;98423;-54
2023/01/12 10:54:52;;;;;;;9.60;4.90;;;;;;;11.43;76.05;100382.35;109069;1256;86453;-55
2023/01/12 10:57:28;;;;;;;8.50;5.10;;;;;;;11.13;76.37;100378.45;109042;1257;94095;-54
2023/01/12 11:00:07;;;;;;;10.90;5.60;;;;;;;11.03;76.32;100379.02;109064;1257;78753;-57
2023/01/12 11:02:48;;;;;;;9.30;5.10;;;;;;;10.84;76.71;100377.59;109073;1257;81467;-58
2023/01/12 11:05:40;;;;;;;8.50;4.60;;;;;;;10.71;76.75;100372.06;109048;1256;99276;-54
2023/01/12 11:08:34;;;;;;;9.60;4.70;;;;;;;10.61;77.03;100369.84;109051;1256;87405;-55
2023/01/12 11:11:28;;;;;;;9.30;5.10;;;;;;;10.48;77.32;100364.86;109024;1257;94041;-58
2023/01/12 11:14:18;;;;;;;9.20;5.10;;;;;;;10.37;77.71;100365.89;109044;1256;79398;-58
2023/01/12 11:17:01;;;;;;;9.00;5.30;;;;;;;10.30;77.63;100354.33;109087;1257;82373;-60
2023/01/12 11:19:43;;;;;;;11.50;4.80;;;;;;;10.18;77.64;100354.18;109082;1257;98936;-54
2023/01/12 11:22:26;;;;;;;6.60;4.30;;;;;;;10.09;77.67;100356.16;109102;1256;87581;-54
2023/01/12 11:25:08;;;;;;;10.00;5.10;;;;;;;9.99;77.93;100356.63;109036;1257;94853;-54
2023/01/12 11:27:54;;;;;;;8.60;4.60;;;;;;;9.91;78.02;100359.59;108963;1256;78961;-54
2023/01/12 11:30:44;;;;;;;10.00;5.10;;;;;;;9.82;78.08;100353.16;109074;1256;80274;-57
2023/01/12 11:33:39;;;;;;;9.50;5.10;;;;;;;9.79;78.11;100350.83;109067;1257;98408;-58
2023/01/12 11:36:24;;;;;;;11.50;6.40;;;;;;;9.76;78.22;100345.80;109047;1256;89422;-54
2023/01/12 11:39:05;;;;;;;12.40;6.90;;;;;;;9.72;78.70;100342.88;109041;1256;92844;-56
2023/01/12 11:43:47;;;;;;;11.00;7.00;;;;;;;9.67;78.94;100340.02;108970;1257;80990;-58
2023/01/12 11:44:49;;;;;;;14.20;7.80;;;;;;;9.67;79.00;100334.59;109052;1258;82837;-53
2023/01/12 11:47:34;;;;;;;11.30;6.80;;;;;;;9.63;79.18;100333.77;109075;1257;98389;-53
2023/01/12 11:50:33;;;;;;;13.50;7.70;;;;;;;9.54;79.46;100334.16;109077;1256;88688;-53
2023/01/12 11:53:22;;;;;;;12.40;7.50;;;;;;;9.48;79.68;100334.29;108671;1257;467827;-52
2023/01/12 11:56:37;;;;;;;12.00;7.10;;;;;;;9.40;80.00;100332.96;109037;1260;80887;-55
2023/01/12 11:59:22;;;;;;;14.00;8.30;;;;;;;9.39;80.22;100335.57;109073;1257;80433;-55
2023/01/12 12:02:07;;;;;;;13.50;8.10;;;;;;;9.37;80.34;100333.30;109046;1257;98842;-55
2023/01/12 12:05:08;;;;;;;11.90;7.50;;;;;;;9.38;80.43;100338.45;109059;1257;87994;-53
2023/01/12 12:08:10;;;;;;;12.70;7.60;;;;;;;9.29;80.64;100338.27;109008;1256;94852;-53
2023/01/12 12:10:56;;;;;;;13.60;8.30;;;;;;;9.24;80.64;100334.19;109019;1257;80614;-53
2023/01/12 12:13:42;;;;;;;12.20;7.90;;;;;;;9.17;80.77;100334.08;109069;1257;81687;-54
2023/01/12 12:16:28;;;;;;;12.30;8.10;;;;;;;9.13;80.89;100331.26;109042;1257;98654;-56
2023/01/12 12:19:24;;;;;;;12.00;7.70;;;;;;;9.10;80.86;100326.73;109057;1257;87874;-56
2023/01/12 12:22:10;;;;;;;12.50;8.10;;;;;;;9.09;81.02;100324.16;109046;1256;94502;-55
2023/01/12 12:25:27;;;;;;;15.50;8.20;;;;;;;9.06;81.12;100318.45;109039;1256;80241;-54
2023/01/12 12:28:35;;;;;;;10.90;7.40;;;;;;;9.03;81.11;100318.63;109050;1256;81917;-54
2023/01/12 12:31:39;;;;;;;9.90;7.10;;;;;;;8.93;81.20;100315.30;109065;1256;97952;-54
2023/01/12 12:34:54;;;;;;;9.10;7.10;;;;;;;8.82;81.47;100318.31;109002;1256;86694;-55
2023/01/12 12:37:41;;;;;;;14.30;7.30;;;;;;;8.77;81.39;100321.88;109029;1257;94290;-55
2023/01/12 12:45:15;;;;;;;15.80;7.70;;;;;;;8.76;81.49;100320.59;109070;1256;81033;-56
2023/01/12 12:47:00;;;;;;;10.50;5.40;;;;;;;8.66;81.42;100317.73;108810;1260;99101;-53
2023/01/12 12:49:40;;;;;;;9.10;5.90;;;;;;;8.67;81.38;100316.00;108847;1260;88611;-56
2023/01/12 12:52:16;;;;;;;8.30;6.20;;;;;;;8.67;81.37;100314.59;108800;1260;94703;-58
2023/01/12 12:54:54;;;;;;;11.50;5.80;;;;;;;8.66;81.34;100313.69;108784;1260;80488;-54
2023/01/12 12:57:32;;;;;;;10.10;6.30;;;;;;;8.60;81.44;100314.88;108776;1260;83166;-54
2023/01/12 13:00:39;;;;;;;13.90;6.50;;;;;;;8.58;81.30;100316.90;108817;1260;97814;-54
2023/01/12 13:03:49;;;;;;;11.90;6.50;;;;;;;8.52;81.31;100307.35;108790;1260;88634;-54
2023/01/12 13:06:34;;;;;;;12.30;7.70;;;;;;;8.48;81.39;100306.77;108782;1260;93972;-55